Terminal Aerodrome Forecast
Issued by NWS

Home | Current Version | Previous Version | Text Only | Print | Product List | Glossary On
Versions: 1 2 3 4 5 6 7 8 9 10 11 12 13 14 15 16 17 18 19 20 21 22 23 24 25 26
000
FTUS42 KCAE 220500
TAFCUB
TAF
KCUB 220540Z 2206/2306 VRB03KT P6SM VCSH FEW005 BKN060
      TEMPO 2206/2208 5SM -SHRA BR BKN005 OVC025
     FM220800 VRB03KT 5SM BR BKN005 OVC010
     FM221300 VRB04KT P6SM SCT010 BKN025
     FM221600 10005KT P6SM VCSH SCT025 BKN050=

USA.gov is the U.S. government's official web portal to all federal, state and local government web resources and services.